Aviation Digital Data Service (ADDS)

Output produced by METARs form (1351 UTC 27 February 2017)
found at http://www.aviationweather.gov/adds/metars/
 
KLNS 271253Z 00000KT 7SM OVC110 M01/M03 A3039 RMK AO2 SLP296 T10061028
KLNS 271153Z 11003KT 7SM OVC110 M03/M05 A3037 RMK AO2 SLP290 T10331050 11022 21044 53015
KLNS 271053Z 10003KT 9SM OVC120 M03/M05 A3035 RMK AO2 SLP281 T10331050
KLNS 270953Z AUTO 04004KT 8SM OVC120 M04/M06 A3035 RMK AO2 SLP281 T10391061
KLNS 270853Z AUTO 08003KT 10SM CLR M03/M06 A3033 RMK AO2 SLP274 T10281061 51016
KLNS 270753Z AUTO 00000KT 9SM CLR M03/M06 A3032 RMK AO2 SLP270 T10281056
KLNS 270653Z AUTO 00000KT 10SM CLR M04/M06 A3030 RMK AO2 SLP263 T10391061
KLNS 270553Z AUTO 09003KT 10SM CLR M03/M07 A3028 RMK AO2 SLP258 T10281067 10017 21028 53006
KLNS 270453Z AUTO 00000KT 10SM CLR M01/M07 A3028 RMK AO2 SLP256 T10111067 400611028
KLNS 270353Z 00000KT 10SM CLR M02/M06 A3027 RMK AO2 SLP254 T10221061
KLNS 270253Z 00000KT 10SM CLR M01/M07 A3027 RMK AO2 SLP252 T10061067 51019
KLNS 270153Z 00000KT 10SM CLR 01/M07 A3026 RMK AO2 SLP250 T00061067
KLNS 270053Z 19003KT 10SM CLR 01/M07 A3023 RMK AO2 SLP240 T00111067
KLNS 262353Z 31006KT 10SM CLR 01/M07 A3021 RMK AO2 SLP233 T00111067 10061 20011 51027
KLNS 262253Z 31009KT 10SM CLR 03/M07 A3018 RMK AO2 SLP225 T00281072
KLNS 262153Z 29017KT 10SM BKN060 04/M07 A3016 RMK AO2 SLP214 T00441072
KLNS 262053Z 28013KT 10SM SCT060 04/M07 A3013 RMK AO2 SLP205 T00391067 53012
KLNS 261953Z 28013KT 10SM BKN055 06/M06 A3011 RMK AO2 SLP200 T00561061
KLNS 261853Z 32012KT 10SM SCT050 04/M08 A3009 RMK AO2 SLP191 T00441078
KLNS 261753Z 29013KT 10SM SCT050 04/M08 A3009 RMK AO2 SLP193 T00391078 10050 20006 50004
KLNS 261653Z 30013G22KT 10SM BKN050 03/M08 A3010 RMK AO2 SLP196 T00331083
KLNS 261553Z 31018G25KT 10SM BKN050 03/M09 A3010 RMK AO2 SLP194 T00331089
KLNS 261453Z COR 30017G24KT 10SM BKN050 01/M09 A3008 RMK AO2 PK WND 33027/1427 SLP189 T00111094 51030
KLNS 261353Z 31015G20KT 10SM OVC049 02/M08 A3007 RMK AO2 PK WND 29028/1331 SLP185 T00171083
KLNS 261253Z 31019KT 10SM OVC048 01/M08 A3003 RMK AO2 SLP173 T00061083
KLNS 261153Z 29015G21KT 10SM OVC044 01/M07 A2999 RMK AO2 SLP159 70020 T00061072 10039 20006 51035
KLNS 261053Z 29017G25KT 10SM OVC042 01/M07 A2996 RMK AO2 SLP147 T00111067
KLNS 260953Z AUTO 29017KT 10SM OVC043 01/M07 A2993 RMK AO2 PK WND 30029/0942 SLP136 T00111067
KLNS 260853Z AUTO 29019G24KT 10SM OVC047 02/M07 A2989 RMK AO2 PK WND 30028/0801 SLP123 T00171067 51017
KLNS 260753Z AUTO 30017G23KT 10SM OVC048 02/M06 A2987 RMK AO2 SLP116 T00221056
KLNS 260653Z AUTO 29017G25KT 10SM BKN050 03/M06 A2986 RMK AO2 PK WND 29028/0559 SLP112 T00281056
KLNS 260553Z AUTO 30020G30KT 10SM OVC048 04/M05 A2984 RMK AO2 PK WND 30030/0553 SLP104 T00391050 10094 20039 53039
KLNS 260453Z AUTO 30016G21KT 10SM OVC055 06/M03 A2980 RMK AO2 PK WND 32030/0416 SLP091 T00561033 402280056
KLNS 260353Z 31013KT 10SM OVC055 06/M02 A2976 RMK AO2 SLP077 T00611017
KLNS 260253Z 30017G27KT 10SM FEW002 SCT050 07/M03 A2972 RMK AO2 PK WND 31031/0237 PRESRR SLP065 T00671028 53036
KLNS 260241Z 31022G31KT 10SM FEW002 SCT055 07/M02 A2970 RMK AO2 PK WND 31031/0237 T00721022
KLNS 260153Z 29015KT 10SM CLR 07/00 A2967 RMK AO2 PK WND 29027/0128 SLP046 T00720000